Time;durP1;ratioP1;P1;durP2;ratioP2;P2;SDS_P1;SDS_P2;PMS_P1;PMS_P2;Temp;Humidity;BMP_temperature;BMP_pressure;BME280_temperature;BME280_humidity;BME280_pressure;Samples;Min_cycle;Max_cycle;Signal;HPM_P1;HPM_P2
2022/11/01 04:01:04;;;;;;;;;;;17.20;99.90;;;;;;5925829;23;19926;-68
2022/11/01 04:03:31;;;;;;;;;;;17.20;99.90;;;;;;4996839;28;19980;-65
2022/11/01 04:05:57;;;;;;;;;;;17.10;99.90;;;;;;5001552;28;20019;-66
2022/11/01 04:08:24;;;;;;;;;;;17.10;99.90;;;;;;4999987;28;20347;-65
2022/11/01 04:10:51;;;;;;;;;;;17.10;99.90;;;;;;5000842;28;19957;-65
2022/11/01 04:13:17;;;;;;;;;;;17.00;99.90;;;;;;4987663;28;19930;-62
2022/11/01 04:21:14;;;;;;;;;;;17.10;99.90;;;;;;4988494;28;19926;-66
2022/11/01 04:23:41;;;;;;;;;;;17.10;99.90;;;;;;4983304;28;19926;-65
2022/11/01 04:26:10;;;;;;;;;;;17.20;99.90;;;;;;4985353;28;19960;-66
2022/11/01 04:28:37;;;;;;;;;;;17.20;99.90;;;;;;4989662;28;19949;-65
2022/11/01 04:31:03;;;;;;;;;;;17.20;99.90;;;;;;4981515;28;19981;-65
2022/11/01 04:33:32;;;;;;;;;;;17.20;99.90;;;;;;4991116;28;20030;-65
2022/11/01 04:36:03;;;;;;;;;;;17.20;99.90;;;;;;4979015;28;19932;-66
2022/11/01 04:38:30;;;;;;;;;;;17.10;99.90;;;;;;4977923;28;20405;-65
2022/11/01 04:40:56;;;;;;;;;;;17.10;99.90;;;;;;4979162;28;19929;-66
2022/11/01 04:43:23;;;;;;;;;;;17.10;99.90;;;;;;4979014;28;19926;-67
2022/11/01 04:45:53;;;;;;;;;;;17.10;99.90;;;;;;4978059;28;20363;-64
2022/11/01 04:48:20;;;;;;;;;;;17.10;99.90;;;;;;4984931;28;19925;-64
2022/11/01 04:50:49;;;;;;;;;;;17.00;99.90;;;;;;4981379;28;19926;-65
2022/11/01 04:53:15;;;;;;;;;;;17.00;99.90;;;;;;4983057;28;19926;-65
2022/11/01 04:55:43;;;;;;;;;;;17.00;99.90;;;;;;4976526;28;20376;-65
2022/11/01 04:58:10;;;;;;;;;;;16.90;99.90;;;;;;4979914;28;19930;-65
2022/11/01 05:00:37;;;;;;;;;;;16.90;99.90;;;;;;4979716;28;19927;-65
2022/11/01 05:03:05;;;;;;;;;;;16.90;99.90;;;;;;4978374;28;19926;-66
2022/11/01 05:05:32;;;;;;;;;;;16.80;99.90;;;;;;4983555;28;19926;-65
2022/11/01 05:08:01;;;;;;;;;;;16.70;99.90;;;;;;4974144;28;19989;-63
2022/11/01 05:10:28;;;;;;;;;;;16.70;99.90;;;;;;4980155;28;19969;-65
2022/11/01 05:12:55;;;;;;;;;;;16.70;99.90;;;;;;4983121;28;20388;-64
2022/11/01 05:15:22;;;;;;;;;;;16.80;99.90;;;;;;4981609;28;19933;-65
2022/11/01 05:17:49;;;;;;;;;;;16.80;99.90;;;;;;4982940;28;19973;-63
2022/11/01 05:20:16;;;;;;;;;;;16.80;99.90;;;;;;4980223;28;19926;-65
2022/11/01 05:22:42;;;;;;;;;;;16.70;99.90;;;;;;4975212;28;20337;-64
2022/11/01 05:25:10;;;;;;;;;;;16.60;99.90;;;;;;4979606;28;19927;-65
2022/11/01 05:27:38;;;;;;;;;;;16.60;99.90;;;;;;4975017;28;19926;-64
2022/11/01 05:30:05;;;;;;;;;;;16.60;99.90;;;;;;4981110;28;19926;-65
2022/11/01 05:32:34;;;;;;;;;;;16.60;99.90;;;;;;4988036;28;19926;-64
2022/11/01 05:35:01;;;;;;;;;;;16.50;99.90;;;;;;4980949;28;20293;-65
2022/11/01 05:37:27;;;;;;;;;;;16.50;99.90;;;;;;4989374;28;20399;-64
2022/11/01 05:39:54;;;;;;;;;;;16.50;99.90;;;;;;4988934;28;19957;-64
2022/11/01 05:42:22;;;;;;;;;;;16.50;99.90;;;;;;4975235;28;19930;-64
2022/11/01 05:44:49;;;;;;;;;;;16.40;99.90;;;;;;4976008;28;19929;-64
2022/11/01 05:47:16;;;;;;;;;;;16.40;99.90;;;;;;4978446;28;19930;-66
2022/11/01 05:49:43;;;;;;;;;;;16.40;99.90;;;;;;4988422;28;19926;-64
2022/11/01 05:52:10;;;;;;;;;;;16.40;99.90;;;;;;4986880;28;19932;-65
2022/11/01 05:54:36;;;;;;;;;;;16.30;99.90;;;;;;4984516;28;19926;-64
2022/11/01 05:57:04;;;;;;;;;;;16.30;99.90;;;;;;4985725;28;19949;-64
2022/11/01 05:59:33;;;;;;;;;;;16.20;99.90;;;;;;4980314;28;19930;-64
2022/11/01 06:02:00;;;;;;;;;;;16.10;99.90;;;;;;4986467;28;20016;-63
2022/11/01 06:04:26;;;;;;;;;;;16.00;99.90;;;;;;4989482;28;19926;-65
2022/11/01 06:06:53;;;;;;;;;;;16.00;99.90;;;;;;4992699;28;19926;-65
2022/11/01 06:09:20;;;;;;;;;;;15.90;99.90;;;;;;4977457;28;20391;-64
2022/11/01 06:11:47;;;;;;;;;;;15.80;99.90;;;;;;4991614;28;19934;-64
2022/11/01 06:14:13;;;;;;;;;;;15.80;99.90;;;;;;4985639;28;19926;-65
2022/11/01 06:16:42;;;;;;;;;;;15.70;99.90;;;;;;4990880;28;20353;-64
2022/11/01 06:19:09;;;;;;;;;;;15.60;99.90;;;;;;4979338;28;19934;-66
2022/11/01 06:21:35;;;;;;;;;;;15.50;99.90;;;;;;4986505;28;19926;-66
2022/11/01 06:24:02;;;;;;;;;;;15.40;99.90;;;;;;4987900;28;20388;-66
2022/11/01 06:26:29;;;;;;;;;;;15.30;99.90;;;;;;4986122;28;19925;-65
2022/11/01 06:28:57;;;;;;;;;;;15.20;99.90;;;;;;4989450;28;19925;-65
2022/11/01 06:31:23;;;;;;;;;;;15.10;99.90;;;;;;4990210;28;19932;-65
2022/11/01 06:33:51;;;;;;;;;;;15.10;99.90;;;;;;4989725;28;19925;-65
2022/11/01 06:36:19;;;;;;;;;;;15.10;99.90;;;;;;4991115;28;19974;-66
2022/11/01 06:38:46;;;;;;;;;;;15.10;99.90;;;;;;4987056;28;19926;-65
2022/11/01 06:41:12;;;;;;;;;;;15.00;99.90;;;;;;4990720;28;19930;-66
2022/11/01 06:43:39;;;;;;;;;;;14.90;99.90;;;;;;4983040;28;19926;-66
2022/11/01 06:46:06;;;;;;;;;;;14.70;99.90;;;;;;4987719;28;20412;-66
2022/11/01 06:48:33;;;;;;;;;;;14.60;99.90;;;;;;4983643;28;19926;-66
2022/11/01 06:51:03;;;;;;;;;;;14.60;99.90;;;;;;4987397;28;19933;-66
2022/11/01 06:53:30;;;;;;;;;;;14.50;99.90;;;;;;4976022;28;19981;-66
2022/11/01 06:55:58;;;;;;;;;;;14.50;99.90;;;;;;4990837;28;19925;-67
2022/11/01 06:58:25;;;;;;;;;;;14.50;99.90;;;;;;4991142;28;20455;-67
2022/11/01 07:00:52;;;;;;;;;;;14.50;99.90;;;;;;4986789;28;19937;-67
2022/11/01 07:03:18;;;;;;;;;;;14.40;99.90;;;;;;4991220;28;20335;-69
2022/11/01 07:05:47;;;;;;;;;;;14.30;99.90;;;;;;4980676;28;20381;-67
2022/11/01 07:08:15;;;;;;;;;;;14.20;99.90;;;;;;4985179;28;20297;-67
2022/11/01 07:10:42;;;;;;;;;;;14.10;99.90;;;;;;4989679;28;19926;-66
2022/11/01 07:13:10;;;;;;;;;;;14.10;99.90;;;;;;4991424;28;19933;-66
2022/11/01 07:15:37;;;;;;;;;;;13.90;99.90;;;;;;4983853;28;20278;-66
2022/11/01 07:18:05;;;;;;;;;;;13.90;99.90;;;;;;4984027;28;19926;-66
2022/11/01 07:20:35;;;;;;;;;;;13.80;99.90;;;;;;4993257;28;19934;-67
2022/11/01 07:23:03;;;;;;;;;;;13.70;99.90;;;;;;4989440;28;19926;-66
2022/11/01 07:25:32;;;;;;;;;;;13.70;99.90;;;;;;4986557;28;19930;-66
2022/11/01 07:27:59;;;;;;;;;;;13.70;99.90;;;;;;4993138;28;19930;-64
2022/11/01 07:30:26;;;;;;;;;;;13.60;99.90;;;;;;4990586;28;19926;-66
2022/11/01 07:32:54;;;;;;;;;;;13.60;99.90;;;;;;4991639;28;20393;-65
2022/11/01 07:35:21;;;;;;;;;;;13.60;99.90;;;;;;4993888;28;19969;-66
2022/11/01 07:37:48;;;;;;;;;;;13.60;99.90;;;;;;4993939;28;19926;-66
2022/11/01 07:40:15;;;;;;;;;;;13.60;99.90;;;;;;4989876;28;19926;-67
2022/11/01 07:42:44;;;;;;;;;;;13.60;99.90;;;;;;4989963;28;19930;-66
2022/11/01 07:45:11;;;;;;;;;;;13.60;99.90;;;;;;4993217;28;19926;-66
2022/11/01 07:47:38;;;;;;;;;;;13.60;99.90;;;;;;4993316;28;19977;-66
2022/11/01 07:50:06;;;;;;;;;;;13.60;99.90;;;;;;4992693;28;19933;-66
2022/11/01 07:52:32;;;;;;;;;;;13.60;99.90;;;;;;4988336;28;19933;-66
2022/11/01 07:54:59;;;;;;;;;;;13.60;99.90;;;;;;4989530;28;19926;-66
2022/11/01 07:57:26;;;;;;;;;;;13.60;99.90;;;;;;4979954;28;19934;-68
2022/11/01 07:59:54;;;;;;;;;;;13.70;99.90;;;;;;4980668;28;19933;-66
2022/11/01 08:02:21;;;;;;;;;;;13.70;99.90;;;;;;4985030;28;20439;-65
2022/11/01 08:04:48;;;;;;;;;;;13.70;99.90;;;;;;4989310;28;19926;-66
2022/11/01 08:07:14;;;;;;;;;;;13.70;99.90;;;;;;4984973;28;19926;-66
2022/11/01 08:09:42;;;;;;;;;;;13.70;99.90;;;;;;4989101;28;19933;-66
2022/11/01 08:12:09;;;;;;;;;;;13.80;99.90;;;;;;4979789;28;20443;-67
2022/11/01 08:14:36;;;;;;;;;;;13.80;99.90;;;;;;4990412;28;19933;-66
2022/11/01 08:17:04;;;;;;;;;;;13.80;99.90;;;;;;4989461;28;19926;-66
2022/11/01 08:19:31;;;;;;;;;;;13.80;99.90;;;;;;4988056;28;19926;-68
2022/11/01 08:21:58;;;;;;;;;;;13.90;99.90;;;;;;4984207;28;20336;-66
2022/11/01 08:24:25;;;;;;;;;;;13.90;99.90;;;;;;4990381;28;19926;-66
2022/11/01 08:26:52;;;;;;;;;;;13.90;99.90;;;;;;4983949;28;19926;-67
2022/11/01 08:29:19;;;;;;;;;;;13.90;99.90;;;;;;4980917;28;20509;-66
2022/11/01 08:31:48;;;;;;;;;;;14.00;99.90;;;;;;4990247;28;19933;-67
2022/11/01 08:34:16;;;;;;;;;;;14.00;99.90;;;;;;4985531;28;19930;-66
2022/11/01 08:36:43;;;;;;;;;;;14.00;99.90;;;;;;4980484;28;19933;-66
2022/11/01 08:39:09;;;;;;;;;;;14.10;99.90;;;;;;4980163;28;19953;-66
2022/11/01 08:41:36;;;;;;;;;;;14.10;99.90;;;;;;4976489;28;20472;-67
2022/11/01 08:44:03;;;;;;;;;;;14.10;99.90;;;;;;4980850;28;19930;-67
2022/11/01 08:46:30;;;;;;;;;;;14.10;99.90;;;;;;4991022;28;19937;-65
2022/11/01 08:48:59;;;;;;;;;;;14.20;99.90;;;;;;4976594;28;19957;-67
2022/11/01 08:51:27;;;;;;;;;;;14.20;99.90;;;;;;4984131;28;19926;-66
2022/11/01 08:53:54;;;;;;;;;;;14.30;99.90;;;;;;4975667;28;20537;-66
2022/11/01 08:56:23;;;;;;;;;;;14.40;99.90;;;;;;4982918;28;19926;-66
2022/11/01 08:58:50;;;;;;;;;;;14.30;99.90;;;;;;4973190;28;20050;-66
2022/11/01 09:01:16;;;;;;;;;;;14.30;99.90;;;;;;4980018;28;19930;-66
2022/11/01 09:03:43;;;;;;;;;;;14.40;99.90;;;;;;4982660;28;19937;-67
2022/11/01 09:06:10;;;;;;;;;;;14.50;99.90;;;;;;4980281;28;19926;-67
2022/11/01 09:08:38;;;;;;;;;;;14.50;99.90;;;;;;4982978;28;19992;-66
2022/11/01 09:11:05;;;;;;;;;;;14.50;99.90;;;;;;4978691;28;19926;-66
2022/11/01 09:13:32;;;;;;;;;;;14.50;99.90;;;;;;4982018;28;19957;-66
2022/11/01 09:15:59;;;;;;;;;;;14.50;99.90;;;;;;4980028;28;19926;-66
2022/11/01 09:18:26;;;;;;;;;;;14.60;99.90;;;;;;4981853;28;19926;-67
2022/11/01 09:20:53;;;;;;;;;;;14.70;99.90;;;;;;4977454;28;19930;-66
2022/11/01 09:23:20;;;;;;;;;;;14.70;99.90;;;;;;4981453;28;19926;-66
2022/11/01 09:25:48;;;;;;;;;;;14.70;99.90;;;;;;4988122;28;19930;-67
2022/11/01 09:28:15;;;;;;;;;;;14.80;99.90;;;;;;4984937;28;20036;-67
2022/11/01 09:30:42;;;;;;;;;;;14.90;99.90;;;;;;4983423;28;19955;-68
2022/11/01 09:33:08;;;;;;;;;;;15.00;99.90;;;;;;4978664;28;19926;-66
2022/11/01 09:35:35;;;;;;;;;;;15.10;99.90;;;;;;4981463;28;19933;-70
2022/11/01 09:38:02;;;;;;;;;;;15.20;99.90;;;;;;4985489;28;19926;-75
2022/11/01 09:40:31;;;;;;;;;;;15.20;99.90;;;;;;4979307;28;19930;-67
2022/11/01 09:43:00;;;;;;;;;;;15.20;99.90;;;;;;4981858;28;19988;-67
2022/11/01 09:45:30;;;;;;;;;;;15.20;99.90;;;;;;4988364;28;19954;-67
2022/11/01 09:47:58;;;;;;;;;;;15.30;99.90;;;;;;4979241;28;19926;-66
2022/11/01 09:50:25;;;;;;;;;;;15.30;99.90;;;;;;4990181;28;19936;-67
2022/11/01 09:52:53;;;;;;;;;;;15.50;99.90;;;;;;4988691;28;19926;-66
2022/11/01 09:55:24;;;;;;;;;;;15.60;99.90;;;;;;4987208;28;20328;-66
2022/11/01 09:57:54;;;;;;;;;;;15.70;99.90;;;;;;4986164;28;19976;-64
2022/11/01 10:00:22;;;;;;;;;;;15.80;99.90;;;;;;4988126;28;19930;-65
2022/11/01 10:03:00;;;;;;;;;;;15.60;99.90;;;;;;4991093;28;19933;-66
2022/11/01 10:05:41;;;;;;;;;;;15.70;99.90;;;;;;4989528;28;19933;-66
2022/11/01 10:08:11;;;;;;;;;;;15.70;99.90;;;;;;4986151;28;20389;-66
2022/11/01 10:10:39;;;;;;;;;;;15.90;99.90;;;;;;4987645;28;19926;-67
2022/11/01 10:13:12;;;;;;;;;;;16.00;99.90;;;;;;4978306;28;19926;-63
2022/11/01 10:15:46;;;;;;;;;;;15.80;99.90;;;;;;4989678;28;20467;-64
2022/11/01 10:18:19;;;;;;;;;;;16.90;99.90;;;;;;4981906;28;19949;-64
2022/11/01 10:20:46;;;;;;;;;;;21.90;99.90;;;;;;4981776;28;19929;-64
2022/11/01 10:23:15;;;;;;;;;;;24.30;99.90;;;;;;4978679;28;19926;-64
2022/11/01 10:25:44;;;;;;;;;;;24.10;99.90;;;;;;4986702;28;20026;-63
2022/11/01 10:28:14;;;;;;;;;;;25.70;99.90;;;;;;4982192;28;19985;-63
2022/11/01 10:30:45;;;;;;;;;;;26.20;99.90;;;;;;4989703;28;19925;-63
2022/11/01 10:33:23;;;;;;;;;;;26.90;99.90;;;;;;4982147;28;20385;-64
2022/11/01 10:35:51;;;;;;;;;;;25.80;99.90;;;;;;4979635;28;20384;-64
2022/11/01 10:38:23;;;;;;;;;;;25.90;99.90;;;;;;4976907;28;20305;-64
2022/11/01 10:40:53;;;;;;;;;;;28.50;99.90;;;;;;4984300;28;19941;-64
2022/11/01 10:43:21;;;;;;;;;;;26.60;99.90;;;;;;4978779;28;19930;-65
2022/11/01 10:45:49;;;;;;;;;;;25.20;99.90;;;;;;4992819;28;19926;-64
2022/11/01 10:48:23;;;;;;;;;;;24.70;99.90;;;;;;4981190;28;19927;-64
2022/11/01 10:50:52;;;;;;;;;;;25.20;99.90;;;;;;4991726;28;19926;-65
2022/11/01 10:53:19;;;;;;;;;;;25.00;99.90;;;;;;4982534;28;19953;-61
2022/11/01 10:55:48;;;;;;;;;;;24.70;99.90;;;;;;4992137;28;20388;-65
2022/11/01 10:58:16;;;;;;;;;;;25.70;99.90;;;;;;4988451;28;19977;-65
2022/11/01 11:00:44;;;;;;;;;;;25.40;99.90;;;;;;4986059;28;19926;-65
2022/11/01 11:03:16;;;;;;;;;;;25.10;99.90;;;;;;5004872;28;19929;-65
2022/11/01 11:05:45;;;;;;;;;;;25.60;99.90;;;;;;4982749;28;19926;-65
2022/11/01 11:08:14;;;;;;;;;;;26.00;99.90;;;;;;4987752;28;19927;-66
2022/11/01 11:10:41;;;;;;;;;;;27.00;99.90;;;;;;4989561;28;19926;-64
2022/11/01 11:13:09;;;;;;;;;;;26.90;99.90;;;;;;4987327;28;19926;-60
2022/11/01 11:15:38;;;;;;;;;;;26.10;99.90;;;;;;4983905;28;20419;-65
2022/11/01 11:18:08;;;;;;;;;;;25.40;99.90;;;;;;4976473;28;19977;-65
2022/11/01 11:20:36;;;;;;;;;;;26.00;99.90;;;;;;4983371;28;19926;-64
2022/11/01 11:23:08;;;;;;;;;;;26.60;99.90;;;;;;4978478;28;19926;-64
2022/11/01 11:25:37;;;;;;;;;;;26.20;99.90;;;;;;4979899;28;19926;-65
2022/11/01 11:28:04;;;;;;;;;;;27.30;99.90;;;;;;4981315;28;19926;-65
2022/11/01 11:30:32;;;;;;;;;;;27.20;99.90;;;;;;4984018;28;19930;-65
2022/11/01 11:33:00;;;;;;;;;;;26.80;99.90;;;;;;4992335;28;19988;-65
2022/11/01 11:35:28;;;;;;;;;;;27.30;99.90;;;;;;4984244;28;19933;-65
2022/11/01 11:37:56;;;;;;;;;;;27.00;99.90;;;;;;4984825;28;20467;-65
2022/11/01 11:40:25;;;;;;;;;;;27.50;99.90;;;;;;4987090;28;19926;-64
2022/11/01 11:42:53;;;;;;;;;;;27.50;99.90;;;;;;4986266;28;19927;-65
2022/11/01 11:45:26;;;;;;;;;;;26.30;99.90;;;;;;4981112;28;20021;-65
2022/11/01 11:47:53;;;;;;;;;;;25.10;99.90;;;;;;4990702;28;20012;-65
2022/11/01 11:50:36;;;;;;;;;;;25.70;99.90;;;;;;4987106;28;19933;-65
2022/11/01 11:53:06;;;;;;;;;;;25.20;99.90;;;;;;4984735;28;20021;-65
2022/11/01 11:55:39;;;;;;;;;;;24.70;99.90;;;;;;4992255;28;19933;-65
2022/11/01 11:58:14;;;;;;;;;;;25.10;99.90;;;;;;4990229;28;19965;-64
2022/11/01 12:00:43;;;;;;;;;;;25.70;99.90;;;;;;4983908;28;19926;-65
2022/11/01 12:03:13;;;;;;;;;;;27.70;99.90;;;;;;4978339;28;19965;-65
2022/11/01 12:05:50;;;;;;;;;;;28.90;99.90;;;;;;4982996;28;19926;-64
2022/11/01 12:08:24;;;;;;;;;;;27.80;99.90;;;;;;4983143;28;19940;-64
2022/11/01 12:10:58;;;;;;;;;;;26.40;99.90;;;;;;4990143;28;20105;-65
2022/11/01 12:13:25;;;;;;;;;;;25.40;99.90;;;;;;4986167;28;19930;-65
2022/11/01 12:16:06;;;;;;;;;;;26.00;99.90;;;;;;4989079;28;19993;-65
2022/11/01 12:18:33;;;;;;;;;;;24.90;99.90;;;;;;4981927;28;20020;-66
2022/11/01 12:21:00;;;;;;;;;;;25.50;99.90;;;;;;4979673;28;19976;-65
2022/11/01 12:23:28;;;;;;;;;;;27.20;99.90;;;;;;4986417;28;20356;-65
2022/11/01 12:25:57;;;;;;;;;;;27.70;99.90;;;;;;4990654;28;19993;-65
2022/11/01 12:28:28;;;;;;;;;;;27.70;99.90;;;;;;4984210;28;19927;-65
2022/11/01 12:30:58;;;;;;;;;;;25.90;99.90;;;;;;4989368;28;19934;-62
2022/11/01 12:33:28;;;;;;;;;;;26.20;99.90;;;;;;4984006;28;20333;-61
2022/11/01 12:35:56;;;;;;;;;;;26.50;99.90;;;;;;4985612;28;19983;-65
2022/11/01 12:38:35;;;;;;;;;;;27.60;99.90;;;;;;4984023;28;19933;-57
2022/11/01 12:41:12;;;;;;;;;;;26.90;99.90;;;;;;4982252;28;20017;-61
2022/11/01 12:43:49;;;;;;;;;;;26.90;99.90;;;;;;4984347;28;19932;-60
2022/11/01 12:46:19;;;;;;;;;;;28.40;99.90;;;;;;4976376;28;19933;-61
2022/11/01 12:48:47;;;;;;;;;;;25.80;99.90;;;;;;4979856;28;19926;-62
2022/11/01 12:51:18;;;;;;;;;;;25.70;99.90;;;;;;4985631;28;20033;-63
2022/11/01 12:53:48;;;;;;;;;;;26.60;99.90;;;;;;4981232;28;20421;-67
2022/11/01 12:56:16;;;;;;;;;;;26.80;99.90;;;;;;4981867;28;19927;-66
2022/11/01 12:58:43;;;;;;;;;;;26.30;99.90;;;;;;4979487;28;20348;-66
2022/11/01 13:01:19;;;;;;;;;;;27.30;99.90;;;;;;4979835;28;19926;-66
2022/11/01 13:03:50;;;;;;;;;;;27.60;99.90;;;;;;4982126;28;19925;-66
2022/11/01 13:06:30;;;;;;;;;;;25.00;99.90;;;;;;4980115;28;20010;-66
2022/11/01 13:09:01;;;;;;;;;;;24.90;99.90;;;;;;4981998;28;19925;-64
2022/11/01 13:11:32;;;;;;;;;;;25.20;99.90;;;;;;4987485;28;20328;-66
2022/11/01 13:14:06;;;;;;;;;;;25.50;99.90;;;;;;4980116;28;19930;-66
2022/11/01 13:16:36;;;;;;;;;;;25.30;99.90;;;;;;4980812;28;19926;-66
2022/11/01 13:19:10;;;;;;;;;;;25.80;99.90;;;;;;4972441;28;19926;-66
2022/11/01 13:21:40;;;;;;;;;;;24.50;99.90;;;;;;4984345;28;19925;-66
2022/11/01 13:24:10;;;;;;;;;;;24.00;99.90;;;;;;4976538;28;19926;-66
2022/11/01 13:26:43;;;;;;;;;;;24.20;99.90;;;;;;4988604;28;20344;-65
2022/11/01 13:29:16;;;;;;;;;;;23.40;99.90;;;;;;4982660;28;19929;-66
2022/11/01 13:31:57;;;;;;;;;;;23.10;99.90;;;;;;4990637;28;19926;-65
2022/11/01 13:34:34;;;;;;;;;;;23.10;99.90;;;;;;4979593;28;20384;-66
2022/11/01 13:37:04;;;;;;;;;;;23.40;99.90;;;;;;4995024;28;20359;-65
2022/11/01 13:39:39;;;;;;;;;;;22.70;99.90;;;;;;4989295;28;19929;-66
2022/11/01 13:42:11;;;;;;;;;;;23.20;99.90;;;;;;4978470;28;19926;-66
2022/11/01 13:44:40;;;;;;;;;;;23.30;99.90;;;;;;4988882;28;20389;-66
2022/11/01 13:47:22;;;;;;;;;;;22.60;99.90;;;;;;4984461;28;19930;-66
2022/11/01 13:49:56;;;;;;;;;;;22.30;99.90;;;;;;4980886;28;19930;-66
2022/11/01 13:52:25;;;;;;;;;;;22.80;99.90;;;;;;4986890;28;19925;-67
2022/11/01 13:54:56;;;;;;;;;;;22.40;99.90;;;;;;4997814;28;19952;-66
2022/11/01 13:57:25;;;;;;;;;;;21.90;99.90;;;;;;4986459;28;19925;-66
2022/11/01 13:59:54;;;;;;;;;;;21.80;99.90;;;;;;4982766;28;19965;-66
2022/11/01 14:02:36;;;;;;;;;;;22.30;99.90;;;;;;4982467;28;19933;-66
2022/11/01 14:05:04;;;;;;;;;;;22.70;99.90;;;;;;4975206;28;19941;-68
2022/11/01 14:07:31;;;;;;;;;;;21.70;99.90;;;;;;4985989;28;19926;-66
2022/11/01 14:09:58;;;;;;;;;;;22.00;99.90;;;;;;4989498;28;20407;-66
2022/11/01 14:12:34;;;;;;;;;;;21.80;99.90;;;;;;4989609;28;19925;-66
2022/11/01 14:15:15;;;;;;;;;;;22.20;99.90;;;;;;4986120;28;19926;-66
2022/11/01 14:17:59;;;;;;;;;;;22.20;99.90;;;;;;4984099;28;19958;-67
2022/11/01 14:20:43;;;;;;;;;;;21.70;99.90;;;;;;4981262;28;19930;-66
2022/11/01 14:23:29;;;;;;;;;;;21.80;99.90;;;;;;4974047;28;19926;-67
2022/11/01 14:26:11;;;;;;;;;;;22.30;99.90;;;;;;4988927;28;20381;-66
2022/11/01 14:28:43;;;;;;;;;;;22.10;99.90;;;;;;4974975;28;19933;-67
2022/11/01 14:31:10;;;;;;;;;;;22.40;99.90;;;;;;4982475;28;19932;-67
2022/11/01 14:33:37;;;;;;;;;;;23.00;99.90;;;;;;4987131;28;20348;-67
2022/11/01 14:36:05;;;;;;;;;;;22.90;99.90;;;;;;4972521;28;19926;-66
2022/11/01 14:38:35;;;;;;;;;;;22.50;99.90;;;;;;4973840;28;19926;-67
2022/11/01 14:41:03;;;;;;;;;;;21.70;99.90;;;;;;4991488;28;19925;-66
2022/11/01 14:43:31;;;;;;;;;;;21.90;99.90;;;;;;4999246;28;19925;-66
2022/11/01 14:46:01;;;;;;;;;;;22.40;99.90;;;;;;4992426;28;19968;-66
2022/11/01 14:48:30;;;;;;;;;;;22.80;99.90;;;;;;4981117;28;19932;-65
2022/11/01 14:50:58;;;;;;;;;;;21.60;99.90;;;;;;4982129;28;19930;-67
2022/11/01 14:53:27;;;;;;;;;;;21.20;99.90;;;;;;4980818;28;19929;-65
2022/11/01 14:56:04;;;;;;;;;;;21.40;99.90;;;;;;4985257;28;19930;-66
2022/11/01 14:58:31;;;;;;;;;;;20.60;99.90;;;;;;4979516;28;19980;-66
2022/11/01 15:01:03;;;;;;;;;;;20.70;99.90;;;;;;4982753;28;19933;-66
2022/11/01 15:03:30;;;;;;;;;;;20.00;99.90;;;;;;4983784;28;19933;-66
2022/11/01 15:05:57;;;;;;;;;;;20.00;99.90;;;;;;4982878;28;20401;-65
2022/11/01 15:08:25;;;;;;;;;;;20.20;99.90;;;;;;4988503;28;19933;-66
2022/11/01 15:10:54;;;;;;;;;;;20.70;99.90;;;;;;4981666;28;19933;-66
2022/11/01 15:13:22;;;;;;;;;;;20.60;99.90;;;;;;4986754;28;19934;-66
2022/11/01 15:15:55;;;;;;;;;;;20.60;99.90;;;;;;4984888;28;19933;-66
2022/11/01 15:18:23;;;;;;;;;;;20.20;99.90;;;;;;4986031;28;19981;-70
2022/11/01 15:20:53;;;;;;;;;;;19.30;99.90;;;;;;4982814;28;19926;-66
2022/11/01 15:23:26;;;;;;;;;;;19.10;99.90;;;;;;4988327;28;19996;-67
2022/11/01 15:25:53;;;;;;;;;;;19.10;99.90;;;;;;5004739;28;19925;-67
2022/11/01 15:28:22;;;;;;;;;;;18.70;99.90;;;;;;4984207;28;19932;-66
2022/11/01 15:30:53;;;;;;;;;;;18.40;99.90;;;;;;4989565;28;19930;-66
2022/11/01 15:33:21;;;;;;;;;;;18.30;99.90;;;;;;4985407;28;19930;-67
2022/11/01 15:35:55;;;;;;;;;;;18.00;99.90;;;;;;4990995;28;20313;-68
2022/11/01 15:38:22;;;;;;;;;;;18.10;99.90;;;;;;4990405;28;19930;-66
2022/11/01 15:40:51;;;;;;;;;;;18.00;99.90;;;;;;4988062;28;19933;-70
2022/11/01 15:43:19;;;;;;;;;;;17.70;99.90;;;;;;4992352;28;19957;-67
2022/11/01 15:45:47;;;;;;;;;;;17.50;99.90;;;;;;4989491;28;19932;-67
2022/11/01 15:48:17;;;;;;;;;;;17.60;99.90;;;;;;4986518;28;20372;-76
2022/11/01 15:50:46;;;;;;;;;;;17.50;99.90;;;;;;4983769;28;20356;-67
2022/11/01 15:53:18;;;;;;;;;;;17.40;99.90;;;;;;4988548;28;19929;-68
2022/11/01 15:55:49;;;;;;;;;;;16.90;99.90;;;;;;4989177;28;19926;-71
2022/11/01 15:58:17;;;;;;;;;;;16.40;99.90;;;;;;4987708;28;19933;-68
2022/11/01 16:00:46;;;;;;;;;;;16.20;99.90;;;;;;4987465;28;19925;-66
2022/11/01 16:03:15;;;;;;;;;;;15.90;99.90;;;;;;4989757;28;20319;-67
2022/11/01 16:05:44;;;;;;;;;;;15.50;99.90;;;;;;4991568;28;20024;-69
2022/11/01 16:08:18;;;;;;;;;;;15.40;99.90;;;;;;4985227;28;19926;-66
2022/11/01 16:10:46;;;;;;;;;;;15.20;99.90;;;;;;4989655;28;19926;-67
2022/11/01 16:13:15;;;;;;;;;;;15.00;99.90;;;;;;4984868;28;19930;-68
2022/11/01 16:15:57;;;;;;;;;;;14.90;99.90;;;;;;4986100;28;19933;-66
2022/11/01 16:18:24;;;;;;;;;;;14.90;99.90;;;;;;4987415;28;19926;-66
2022/11/01 16:21:00;;;;;;;;;;;14.80;99.90;;;;;;4990096;28;19925;-67
2022/11/01 16:23:28;;;;;;;;;;;14.70;99.90;;;;;;4983304;28;19934;-68
2022/11/01 16:26:04;;;;;;;;;;;14.70;99.90;;;;;;4993529;28;19941;-68
2022/11/01 16:28:37;;;;;;;;;;;14.60;99.90;;;;;;4991540;28;19930;-68
2022/11/01 16:31:04;;;;;;;;;;;14.50;99.90;;;;;;4985440;28;20460;-67
2022/11/01 16:33:42;;;;;;;;;;;14.50;99.90;;;;;;4989266;28;20356;-66
2022/11/01 16:36:25;;;;;;;;;;;14.40;99.90;;;;;;4981308;28;20399;-67
2022/11/01 16:38:53;;;;;;;;;;;14.40;99.90;;;;;;4991833;28;19933;-67
2022/11/01 16:41:22;;;;;;;;;;;14.40;99.90;;;;;;4991211;28;19929;-67
2022/11/01 16:43:52;;;;;;;;;;;14.30;99.90;;;;;;4990652;28;20171;-71
2022/11/01 16:46:19;;;;;;;;;;;14.30;99.90;;;;;;4988495;28;19930;-64
2022/11/01 16:48:49;;;;;;;;;;;14.20;99.90;;;;;;4992341;28;19955;-67
2022/11/01 16:51:16;;;;;;;;;;;14.20;99.90;;;;;;4992448;28;20514;-65
2022/11/01 16:53:43;;;;;;;;;;;14.10;99.90;;;;;;4989660;28;20288;-66
2022/11/01 16:56:14;;;;;;;;;;;14.20;99.90;;;;;;4992540;28;19969;-66
2022/11/01 16:58:42;;;;;;;;;;;14.20;99.90;;;;;;4988572;28;19933;-66
2022/11/01 17:01:13;;;;;;;;;;;14.10;99.90;;;;;;4992190;28;20300;-66
2022/11/01 17:03:40;;;;;;;;;;;14.10;99.90;;;;;;4992427;28;20278;-66
2022/11/01 17:06:06;;;;;;;;;;;14.00;99.90;;;;;;4987969;28;20443;-66
2022/11/01 17:08:33;;;;;;;;;;;14.10;99.90;;;;;;4987451;28;19926;-67
2022/11/01 17:11:00;;;;;;;;;;;14.10;99.90;;;;;;4985838;28;19930;-67
2022/11/01 17:13:27;;;;;;;;;;;14.00;99.90;;;;;;4986921;28;19925;-68
2022/11/01 17:15:55;;;;;;;;;;;14.00;99.90;;;;;;4981967;28;19945;-67
2022/11/01 17:18:26;;;;;;;;;;;13.90;99.90;;;;;;4980249;28;19932;-67
2022/11/01 17:20:52;;;;;;;;;;;13.90;99.90;;;;;;4982689;28;19926;-66
2022/11/01 17:23:21;;;;;;;;;;;13.90;99.90;;;;;;4983745;28;19926;-67
2022/11/01 17:25:50;;;;;;;;;;;13.80;99.90;;;;;;4981168;28;19926;-68
2022/11/01 17:28:17;;;;;;;;;;;13.80;99.90;;;;;;4976830;28;19989;-67
2022/11/01 17:30:43;;;;;;;;;;;13.80;99.90;;;;;;4987216;28;19937;-66
2022/11/01 17:33:12;;;;;;;;;;;13.70;99.90;;;;;;4988858;28;19930;-67
2022/11/01 17:35:39;;;;;;;;;;;13.60;99.90;;;;;;4981022;28;20401;-68
2022/11/01 17:38:08;;;;;;;;;;;13.60;99.90;;;;;;4984279;28;19926;-69
2022/11/01 17:40:35;;;;;;;;;;;13.60;99.90;;;;;;4986170;28;19976;-67
2022/11/01 17:43:02;;;;;;;;;;;13.60;99.90;;;;;;4987158;28;19927;-69
2022/11/01 17:45:29;;;;;;;;;;;13.50;99.90;;;;;;4986798;28;19926;-67
2022/11/01 17:47:56;;;;;;;;;;;13.50;99.90;;;;;;4987462;28;19930;-67
2022/11/01 17:50:24;;;;;;;;;;;13.50;99.90;;;;;;4988084;28;19926;-66
2022/11/01 17:52:53;;;;;;;;;;;13.40;99.90;;;;;;4987524;28;19930;-67
2022/11/01 17:55:19;;;;;;;;;;;13.50;99.90;;;;;;4982997;28;19926;-66
2022/11/01 17:57:47;;;;;;;;;;;13.40;99.90;;;;;;4974822;28;19933;-65
2022/11/01 18:00:14;;;;;;;;;;;13.40;99.90;;;;;;4977639;28;19926;-67
2022/11/01 18:02:41;;;;;;;;;;;13.40;99.90;;;;;;4983743;28;20467;-65
2022/11/01 18:05:09;;;;;;;;;;;13.40;99.90;;;;;;4988394;28;19932;-67
2022/11/01 18:07:39;;;;;;;;;;;13.40;99.90;;;;;;4982657;28;19934;-69
2022/11/01 18:10:12;;;;;;;;;;;13.40;99.90;;;;;;4985266;28;19926;-69
2022/11/01 18:12:48;;;;;;;;;;;13.40;99.90;;;;;;4989151;28;21540;-74
2022/11/01 18:15:19;;;;;;;;;;;13.40;99.90;;;;;;4983017;28;19932;-68
2022/11/01 18:17:49;;;;;;;;;;;13.40;99.90;;;;;;4984250;28;19930;-66
2022/11/01 18:20:22;;;;;;;;;;;13.30;99.90;;;;;;4983391;28;19926;-67
2022/11/01 18:22:54;;;;;;;;;;;13.30;99.90;;;;;;4980345;28;19989;-68
2022/11/01 18:25:25;;;;;;;;;;;13.40;99.90;;;;;;4978724;28;19925;-68
2022/11/01 18:27:54;;;;;;;;;;;13.30;99.90;;;;;;4988343;28;19926;-67
2022/11/01 18:30:21;;;;;;;;;;;13.40;99.90;;;;;;4983989;28;19926;-66
2022/11/01 18:32:50;;;;;;;;;;;13.40;99.90;;;;;;4978497;28;19934;-67